sensor_id;sensor_type;location;lat;lon;timestamp;P1;durP1;ratioP1;P2;durP2;ratioP2
41323;SDS011;27073;51.128;4.220;2022-12-17T00:01:33;44.65;;;32.90;;
41323;SDS011;27073;51.128;4.220;2022-12-17T00:04:18;46.83;;;33.33;;
41323;SDS011;27073;51.128;4.220;2022-12-17T00:07:02;45.97;;;32.20;;
41323;SDS011;27073;51.128;4.220;2022-12-17T00:09:47;45.22;;;32.08;;
41323;SDS011;27073;51.128;4.220;2022-12-17T00:12:31;54.63;;;37.45;;
41323;SDS011;27073;51.128;4.220;2022-12-17T00:15:16;77.60;;;50.75;;
41323;SDS011;27073;51.128;4.220;2022-12-17T00:18:01;72.47;;;48.55;;
41323;SDS011;27073;51.128;4.220;2022-12-17T00:20:55;58.58;;;40.83;;
41323;SDS011;27073;51.128;4.220;2022-12-17T00:23:41;52.95;;;38.42;;
41323;SDS011;27073;51.128;4.220;2022-12-17T00:26:25;51.35;;;38.13;;
41323;SDS011;27073;51.128;4.220;2022-12-17T00:29:10;50.03;;;36.08;;
41323;SDS011;27073;51.128;4.220;2022-12-17T00:31:56;54.60;;;36.05;;
41323;SDS011;27073;51.128;4.220;2022-12-17T00:34:40;43.80;;;32.58;;
41323;SDS011;27073;51.128;4.220;2022-12-17T00:37:25;46.90;;;34.03;;
41323;SDS011;27073;51.128;4.220;2022-12-17T00:40:09;47.63;;;34.20;;
41323;SDS011;27073;51.128;4.220;2022-12-17T00:43:01;49.70;;;33.17;;
41323;SDS011;27073;51.128;4.220;2022-12-17T00:45:50;46.45;;;34.10;;
41323;SDS011;27073;51.128;4.220;2022-12-17T00:48:35;48.22;;;33.55;;
41323;SDS011;27073;51.128;4.220;2022-12-17T00:51:19;41.08;;;31.73;;
41323;SDS011;27073;51.128;4.220;2022-12-17T00:54:05;45.53;;;33.20;;
41323;SDS011;27073;51.128;4.220;2022-12-17T00:56:50;45.45;;;32.55;;
41323;SDS011;27073;51.128;4.220;2022-12-17T00:59:34;46.88;;;32.42;;
41323;SDS011;27073;51.128;4.220;2022-12-17T01:02:22;45.65;;;30.83;;
41323;SDS011;27073;51.128;4.220;2022-12-17T01:05:06;42.88;;;32.53;;
41323;SDS011;27073;51.128;4.220;2022-12-17T01:07:53;47.03;;;31.98;;
41323;SDS011;27073;51.128;4.220;2022-12-17T01:10:37;44.17;;;30.08;;
41323;SDS011;27073;51.128;4.220;2022-12-17T01:13:21;44.10;;;31.70;;
41323;SDS011;27073;51.128;4.220;2022-12-17T01:16:07;46.47;;;30.85;;
41323;SDS011;27073;51.128;4.220;2022-12-17T01:18:53;42.20;;;30.55;;
41323;SDS011;27073;51.128;4.220;2022-12-17T01:21:38;42.75;;;32.08;;
41323;SDS011;27073;51.128;4.220;2022-12-17T01:24:23;41.00;;;32.08;;
41323;SDS011;27073;51.128;4.220;2022-12-17T01:27:07;45.33;;;32.42;;
41323;SDS011;27073;51.128;4.220;2022-12-17T01:29:52;46.78;;;33.58;;
41323;SDS011;27073;51.128;4.220;2022-12-17T01:32:36;47.63;;;32.13;;
41323;SDS011;27073;51.128;4.220;2022-12-17T01:35:21;44.35;;;30.30;;
41323;SDS011;27073;51.128;4.220;2022-12-17T01:38:09;47.38;;;34.67;;
41323;SDS011;27073;51.128;4.220;2022-12-17T01:40:54;49.35;;;33.85;;
41323;SDS011;27073;51.128;4.220;2022-12-17T01:43:39;51.58;;;36.53;;
41323;SDS011;27073;51.128;4.220;2022-12-17T01:46:25;52.28;;;35.53;;
41323;SDS011;27073;51.128;4.220;2022-12-17T01:49:13;42.65;;;31.95;;
41323;SDS011;27073;51.128;4.220;2022-12-17T01:51:57;42.95;;;33.35;;
41323;SDS011;27073;51.128;4.220;2022-12-17T01:54:43;45.83;;;34.75;;
41323;SDS011;27073;51.128;4.220;2022-12-17T01:57:28;46.70;;;33.72;;
41323;SDS011;27073;51.128;4.220;2022-12-17T02:00:13;45.78;;;32.42;;
41323;SDS011;27073;51.128;4.220;2022-12-17T02:02:58;49.00;;;34.33;;
41323;SDS011;27073;51.128;4.220;2022-12-17T02:05:44;47.05;;;32.50;;
41323;SDS011;27073;51.128;4.220;2022-12-17T02:08:53;47.20;;;31.95;;
41323;SDS011;27073;51.128;4.220;2022-12-17T02:11:53;45.80;;;31.20;;
41323;SDS011;27073;51.128;4.220;2022-12-17T02:14:48;49.33;;;32.55;;
41323;SDS011;27073;51.128;4.220;2022-12-17T02:17:42;46.35;;;34.65;;
41323;SDS011;27073;51.128;4.220;2022-12-17T02:20:47;48.63;;;33.45;;
41323;SDS011;27073;51.128;4.220;2022-12-17T02:29:39;44.50;;;32.73;;
41323;SDS011;27073;51.128;4.220;2022-12-17T02:32:26;49.75;;;35.58;;
41323;SDS011;27073;51.128;4.220;2022-12-17T02:35:14;53.25;;;35.42;;
41323;SDS011;27073;51.128;4.220;2022-12-17T02:38:18;48.97;;;33.58;;
41323;SDS011;27073;51.128;4.220;2022-12-17T02:41:05;63.65;;;34.72;;
41323;SDS011;27073;51.128;4.220;2022-12-17T02:43:53;49.22;;;36.70;;
41323;SDS011;27073;51.128;4.220;2022-12-17T02:46:39;45.38;;;33.60;;
41323;SDS011;27073;51.128;4.220;2022-12-17T02:49:24;47.03;;;34.47;;
41323;SDS011;27073;51.128;4.220;2022-12-17T02:52:09;51.60;;;36.13;;
41323;SDS011;27073;51.128;4.220;2022-12-17T02:54:55;45.92;;;34.33;;
41323;SDS011;27073;51.128;4.220;2022-12-17T02:57:41;49.33;;;35.63;;
41323;SDS011;27073;51.128;4.220;2022-12-17T03:00:26;49.17;;;35.28;;
41323;SDS011;27073;51.128;4.220;2022-12-17T03:03:10;51.47;;;34.20;;
41323;SDS011;27073;51.128;4.220;2022-12-17T03:05:54;46.72;;;34.35;;
41323;SDS011;27073;51.128;4.220;2022-12-17T03:08:40;51.72;;;34.20;;
41323;SDS011;27073;51.128;4.220;2022-12-17T03:11:28;49.17;;;34.13;;
41323;SDS011;27073;51.128;4.220;2022-12-17T03:14:12;42.67;;;32.25;;
41323;SDS011;27073;51.128;4.220;2022-12-17T03:16:57;43.95;;;32.53;;
41323;SDS011;27073;51.128;4.220;2022-12-17T03:19:42;45.10;;;31.75;;
41323;SDS011;27073;51.128;4.220;2022-12-17T03:22:26;47.97;;;33.10;;
41323;SDS011;27073;51.128;4.220;2022-12-17T03:25:11;44.50;;;32.38;;
41323;SDS011;27073;51.128;4.220;2022-12-17T03:27:55;43.58;;;32.35;;
41323;SDS011;27073;51.128;4.220;2022-12-17T03:30:45;44.47;;;32.57;;
41323;SDS011;27073;51.128;4.220;2022-12-17T03:33:29;57.58;;;37.20;;
41323;SDS011;27073;51.128;4.220;2022-12-17T03:36:14;43.25;;;32.03;;
41323;SDS011;27073;51.128;4.220;2022-12-17T03:38:58;48.05;;;34.17;;
41323;SDS011;27073;51.128;4.220;2022-12-17T03:41:43;50.05;;;35.80;;
41323;SDS011;27073;51.128;4.220;2022-12-17T03:44:28;48.63;;;35.75;;
41323;SDS011;27073;51.128;4.220;2022-12-17T03:47:12;48.15;;;33.58;;
41323;SDS011;27073;51.128;4.220;2022-12-17T03:49:56;48.65;;;35.92;;
41323;SDS011;27073;51.128;4.220;2022-12-17T03:52:41;52.25;;;35.47;;
41323;SDS011;27073;51.128;4.220;2022-12-17T03:55:25;46.10;;;34.67;;
41323;SDS011;27073;51.128;4.220;2022-12-17T03:58:10;48.58;;;35.00;;
41323;SDS011;27073;51.128;4.220;2022-12-17T04:00:54;48.65;;;34.60;;
41323;SDS011;27073;51.128;4.220;2022-12-17T04:03:38;44.08;;;33.70;;
41323;SDS011;27073;51.128;4.220;2022-12-17T04:06:23;39.88;;;31.67;;
41323;SDS011;27073;51.128;4.220;2022-12-17T04:09:07;48.35;;;34.78;;
41323;SDS011;27073;51.128;4.220;2022-12-17T04:11:51;48.08;;;34.58;;
41323;SDS011;27073;51.128;4.220;2022-12-17T04:14:36;43.28;;;35.05;;
41323;SDS011;27073;51.128;4.220;2022-12-17T04:17:20;49.20;;;33.47;;
41323;SDS011;27073;51.128;4.220;2022-12-17T04:20:05;45.67;;;32.83;;
41323;SDS011;27073;51.128;4.220;2022-12-17T04:22:49;44.40;;;33.08;;
41323;SDS011;27073;51.128;4.220;2022-12-17T04:25:34;47.92;;;32.47;;
41323;SDS011;27073;51.128;4.220;2022-12-17T04:28:18;44.45;;;31.52;;
41323;SDS011;27073;51.128;4.220;2022-12-17T04:31:02;43.63;;;31.08;;
41323;SDS011;27073;51.128;4.220;2022-12-17T04:33:47;43.17;;;31.15;;
41323;SDS011;27073;51.128;4.220;2022-12-17T04:36:31;40.25;;;30.08;;
41323;SDS011;27073;51.128;4.220;2022-12-17T04:39:16;40.67;;;32.40;;
41323;SDS011;27073;51.128;4.220;2022-12-17T04:42:00;38.85;;;30.02;;
41323;SDS011;27073;51.128;4.220;2022-12-17T04:44:44;42.83;;;30.65;;
41323;SDS011;27073;51.128;4.220;2022-12-17T04:47:29;39.15;;;30.08;;
41323;SDS011;27073;51.128;4.220;2022-12-17T04:50:14;42.38;;;29.88;;
41323;SDS011;27073;51.128;4.220;2022-12-17T04:52:59;38.65;;;30.40;;
41323;SDS011;27073;51.128;4.220;2022-12-17T04:55:48;41.78;;;29.00;;
41323;SDS011;27073;51.128;4.220;2022-12-17T04:58:33;39.63;;;28.55;;
41323;SDS011;27073;51.128;4.220;2022-12-17T05:01:18;38.97;;;29.35;;
41323;SDS011;27073;51.128;4.220;2022-12-17T05:04:03;38.67;;;29.08;;
41323;SDS011;27073;51.128;4.220;2022-12-17T05:06:47;40.90;;;28.48;;
41323;SDS011;27073;51.128;4.220;2022-12-17T05:09:32;39.97;;;29.05;;
41323;SDS011;27073;51.128;4.220;2022-12-17T05:12:16;41.70;;;28.70;;
41323;SDS011;27073;51.128;4.220;2022-12-17T05:15:00;36.58;;;27.77;;
41323;SDS011;27073;51.128;4.220;2022-12-17T05:17:45;38.95;;;28.48;;
41323;SDS011;27073;51.128;4.220;2022-12-17T05:20:29;36.75;;;26.63;;
41323;SDS011;27073;51.128;4.220;2022-12-17T05:23:14;36.40;;;26.15;;
41323;SDS011;27073;51.128;4.220;2022-12-17T05:28:46;37.15;;;28.08;;
41323;SDS011;27073;51.128;4.220;2022-12-17T05:31:31;41.92;;;28.45;;
41323;SDS011;27073;51.128;4.220;2022-12-17T05:34:15;36.35;;;26.13;;
41323;SDS011;27073;51.128;4.220;2022-12-17T05:36:59;37.97;;;27.58;;
41323;SDS011;27073;51.128;4.220;2022-12-17T05:39:44;40.10;;;27.05;;
41323;SDS011;27073;51.128;4.220;2022-12-17T05:42:28;34.30;;;26.63;;
41323;SDS011;27073;51.128;4.220;2022-12-17T05:45:13;34.58;;;26.35;;
41323;SDS011;27073;51.128;4.220;2022-12-17T05:47:57;39.05;;;27.60;;
41323;SDS011;27073;51.128;4.220;2022-12-17T05:50:49;36.70;;;26.48;;
41323;SDS011;27073;51.128;4.220;2022-12-17T05:53:34;38.08;;;25.48;;
41323;SDS011;27073;51.128;4.220;2022-12-17T05:56:18;36.78;;;27.38;;
41323;SDS011;27073;51.128;4.220;2022-12-17T05:59:02;34.92;;;27.23;;
41323;SDS011;27073;51.128;4.220;2022-12-17T06:01:47;40.47;;;27.20;;
41323;SDS011;27073;51.128;4.220;2022-12-17T06:04:31;38.05;;;26.15;;
41323;SDS011;27073;51.128;4.220;2022-12-17T06:07:15;33.85;;;25.17;;
41323;SDS011;27073;51.128;4.220;2022-12-17T06:10:00;31.95;;;25.20;;
41323;SDS011;27073;51.128;4.220;2022-12-17T06:12:53;35.65;;;26.60;;
41323;SDS011;27073;51.128;4.220;2022-12-17T06:15:38;36.08;;;26.33;;
41323;SDS011;27073;51.128;4.220;2022-12-17T06:18:30;33.38;;;25.13;;
41323;SDS011;27073;51.128;4.220;2022-12-17T06:21:14;36.63;;;26.75;;
41323;SDS011;27073;51.128;4.220;2022-12-17T06:23:59;32.60;;;24.45;;
41323;SDS011;27073;51.128;4.220;2022-12-17T06:26:43;38.25;;;25.70;;
41323;SDS011;27073;51.128;4.220;2022-12-17T06:29:27;35.28;;;25.65;;
41323;SDS011;27073;51.128;4.220;2022-12-17T06:32:12;37.28;;;24.95;;
41323;SDS011;27073;51.128;4.220;2022-12-17T06:34:56;38.75;;;26.60;;
41323;SDS011;27073;51.128;4.220;2022-12-17T06:37:41;36.53;;;25.63;;
41323;SDS011;27073;51.128;4.220;2022-12-17T06:40:25;33.38;;;24.85;;
41323;SDS011;27073;51.128;4.220;2022-12-17T06:43:09;38.25;;;26.20;;
41323;SDS011;27073;51.128;4.220;2022-12-17T06:45:54;35.70;;;25.83;;
41323;SDS011;27073;51.128;4.220;2022-12-17T06:48:38;39.20;;;26.23;;
41323;SDS011;27073;51.128;4.220;2022-12-17T06:51:23;34.60;;;24.17;;
41323;SDS011;27073;51.128;4.220;2022-12-17T06:54:07;32.40;;;24.55;;
41323;SDS011;27073;51.128;4.220;2022-12-17T06:56:52;36.33;;;25.70;;
41323;SDS011;27073;51.128;4.220;2022-12-17T06:59:53;34.50;;;24.15;;
41323;SDS011;27073;51.128;4.220;2022-12-17T07:02:38;35.92;;;25.98;;
41323;SDS011;27073;51.128;4.220;2022-12-17T07:05:23;32.70;;;24.73;;
41323;SDS011;27073;51.128;4.220;2022-12-17T07:08:15;38.05;;;24.83;;
41323;SDS011;27073;51.128;4.220;2022-12-17T07:11:00;38.70;;;26.08;;
41323;SDS011;27073;51.128;4.220;2022-12-17T07:13:45;32.97;;;25.70;;
41323;SDS011;27073;51.128;4.220;2022-12-17T07:16:29;32.50;;;24.52;;
41323;SDS011;27073;51.128;4.220;2022-12-17T07:19:13;32.30;;;24.77;;
41323;SDS011;27073;51.128;4.220;2022-12-17T07:21:58;33.35;;;24.13;;
41323;SDS011;27073;51.128;4.220;2022-12-17T07:24:42;35.17;;;26.02;;
41323;SDS011;27073;51.128;4.220;2022-12-17T07:27:26;35.53;;;25.33;;
41323;SDS011;27073;51.128;4.220;2022-12-17T07:30:11;31.45;;;24.73;;
41323;SDS011;27073;51.128;4.220;2022-12-17T07:33:02;41.28;;;26.88;;
41323;SDS011;27073;51.128;4.220;2022-12-17T07:35:48;35.05;;;24.88;;
41323;SDS011;27073;51.128;4.220;2022-12-17T07:38:32;32.13;;;24.35;;
41323;SDS011;27073;51.128;4.220;2022-12-17T07:41:17;33.55;;;24.73;;
41323;SDS011;27073;51.128;4.220;2022-12-17T07:44:03;31.60;;;25.00;;
41323;SDS011;27073;51.128;4.220;2022-12-17T07:46:48;36.42;;;27.00;;
41323;SDS011;27073;51.128;4.220;2022-12-17T07:49:32;34.65;;;25.02;;
41323;SDS011;27073;51.128;4.220;2022-12-17T07:52:16;35.70;;;24.70;;
41323;SDS011;27073;51.128;4.220;2022-12-17T07:55:01;32.17;;;23.27;;
41323;SDS011;27073;51.128;4.220;2022-12-17T07:57:45;38.50;;;25.08;;
41323;SDS011;27073;51.128;4.220;2022-12-17T08:00:30;34.55;;;24.33;;
41323;SDS011;27073;51.128;4.220;2022-12-17T08:03:14;35.45;;;26.80;;
41323;SDS011;27073;51.128;4.220;2022-12-17T08:05:58;32.22;;;24.52;;
41323;SDS011;27073;51.128;4.220;2022-12-17T08:08:43;37.47;;;26.45;;
41323;SDS011;27073;51.128;4.220;2022-12-17T08:11:27;40.25;;;26.48;;
41323;SDS011;27073;51.128;4.220;2022-12-17T08:14:12;36.03;;;25.92;;
41323;SDS011;27073;51.128;4.220;2022-12-17T08:16:56;37.70;;;27.40;;
41323;SDS011;27073;51.128;4.220;2022-12-17T08:19:40;39.20;;;28.38;;
41323;SDS011;27073;51.128;4.220;2022-12-17T08:22:25;35.92;;;27.63;;
41323;SDS011;27073;51.128;4.220;2022-12-17T08:25:09;37.58;;;28.10;;
41323;SDS011;27073;51.128;4.220;2022-12-17T08:27:55;40.22;;;27.95;;
41323;SDS011;27073;51.128;4.220;2022-12-17T08:30:46;37.45;;;26.38;;
41323;SDS011;27073;51.128;4.220;2022-12-17T08:33:31;35.25;;;25.88;;
41323;SDS011;27073;51.128;4.220;2022-12-17T08:36:15;35.60;;;26.73;;
41323;SDS011;27073;51.128;4.220;2022-12-17T08:39:00;35.25;;;25.50;;
41323;SDS011;27073;51.128;4.220;2022-12-17T08:41:44;40.17;;;27.52;;
41323;SDS011;27073;51.128;4.220;2022-12-17T08:44:28;43.63;;;27.25;;
41323;SDS011;27073;51.128;4.220;2022-12-17T08:47:13;33.42;;;26.05;;
41323;SDS011;27073;51.128;4.220;2022-12-17T08:49:57;37.33;;;26.98;;
41323;SDS011;27073;51.128;4.220;2022-12-17T08:52:41;39.30;;;27.55;;
41323;SDS011;27073;51.128;4.220;2022-12-17T08:55:51;36.17;;;27.02;;
41323;SDS011;27073;51.128;4.220;2022-12-17T08:58:35;37.05;;;27.92;;
41323;SDS011;27073;51.128;4.220;2022-12-17T09:01:20;42.22;;;28.23;;
41323;SDS011;27073;51.128;4.220;2022-12-17T09:04:04;36.50;;;26.85;;
41323;SDS011;27073;51.128;4.220;2022-12-17T09:06:49;39.72;;;28.58;;
41323;SDS011;27073;51.128;4.220;2022-12-17T09:09:33;40.55;;;28.27;;
41323;SDS011;27073;51.128;4.220;2022-12-17T09:12:18;39.03;;;28.10;;
41323;SDS011;27073;51.128;4.220;2022-12-17T09:15:02;40.83;;;29.08;;
41323;SDS011;27073;51.128;4.220;2022-12-17T09:17:49;35.00;;;27.45;;
41323;SDS011;27073;51.128;4.220;2022-12-17T09:20:34;37.42;;;29.77;;
41323;SDS011;27073;51.128;4.220;2022-12-17T09:23:18;41.80;;;27.67;;
41323;SDS011;27073;51.128;4.220;2022-12-17T09:26:03;37.33;;;27.40;;
41323;SDS011;27073;51.128;4.220;2022-12-17T09:28:47;39.60;;;28.63;;
41323;SDS011;27073;51.128;4.220;2022-12-17T09:31:31;45.28;;;30.30;;
41323;SDS011;27073;51.128;4.220;2022-12-17T09:34:16;51.38;;;29.33;;
41323;SDS011;27073;51.128;4.220;2022-12-17T09:37:01;45.53;;;31.00;;
41323;SDS011;27073;51.128;4.220;2022-12-17T09:39:46;39.80;;;29.15;;
41323;SDS011;27073;51.128;4.220;2022-12-17T09:42:33;45.30;;;31.02;;
41323;SDS011;27073;51.128;4.220;2022-12-17T09:45:39;42.65;;;30.98;;
41323;SDS011;27073;51.128;4.220;2022-12-17T09:51:22;39.65;;;29.63;;
41323;SDS011;27073;51.128;4.220;2022-12-17T09:54:33;46.58;;;31.65;;
41323;SDS011;27073;51.128;4.220;2022-12-17T09:57:25;39.47;;;30.77;;
41323;SDS011;27073;51.128;4.220;2022-12-17T10:00:14;45.40;;;31.65;;
41323;SDS011;27073;51.128;4.220;2022-12-17T10:03:01;46.17;;;32.92;;
41323;SDS011;27073;51.128;4.220;2022-12-17T10:05:46;40.92;;;31.98;;
41323;SDS011;27073;51.128;4.220;2022-12-17T10:08:32;45.00;;;32.10;;
41323;SDS011;27073;51.128;4.220;2022-12-17T10:11:24;46.50;;;33.08;;
41323;SDS011;27073;51.128;4.220;2022-12-17T10:14:17;48.85;;;34.55;;
41323;SDS011;27073;51.128;4.220;2022-12-17T10:17:02;46.30;;;34.55;;
41323;SDS011;27073;51.128;4.220;2022-12-17T10:19:48;46.53;;;33.38;;
41323;SDS011;27073;51.128;4.220;2022-12-17T10:22:42;43.70;;;34.25;;
41323;SDS011;27073;51.128;4.220;2022-12-17T10:25:28;43.55;;;32.85;;
41323;SDS011;27073;51.128;4.220;2022-12-17T10:28:30;47.63;;;34.45;;
41323;SDS011;27073;51.128;4.220;2022-12-17T10:31:15;45.83;;;33.65;;
41323;SDS011;27073;51.128;4.220;2022-12-17T10:34:04;48.00;;;33.30;;
41323;SDS011;27073;51.128;4.220;2022-12-17T10:37:13;46.17;;;34.25;;
41323;SDS011;27073;51.128;4.220;2022-12-17T10:40:02;46.08;;;34.92;;
41323;SDS011;27073;51.128;4.220;2022-12-17T10:42:59;43.00;;;33.22;;
41323;SDS011;27073;51.128;4.220;2022-12-17T10:45:51;47.45;;;35.65;;
41323;SDS011;27073;51.128;4.220;2022-12-17T10:48:39;48.85;;;35.92;;
41323;SDS011;27073;51.128;4.220;2022-12-17T10:51:30;45.85;;;35.08;;
41323;SDS011;27073;51.128;4.220;2022-12-17T10:54:29;48.35;;;34.95;;
41323;SDS011;27073;51.128;4.220;2022-12-17T10:57:35;44.25;;;32.78;;
41323;SDS011;27073;51.128;4.220;2022-12-17T11:06:21;48.88;;;36.83;;
41323;SDS011;27073;51.128;4.220;2022-12-17T11:12:32;45.88;;;35.60;;
41323;SDS011;27073;51.128;4.220;2022-12-17T11:21:32;49.15;;;36.20;;
41323;SDS011;27073;51.128;4.220;2022-12-17T11:24:26;47.00;;;35.90;;
41323;SDS011;27073;51.128;4.220;2022-12-17T11:27:18;49.63;;;36.38;;
41323;SDS011;27073;51.128;4.220;2022-12-17T11:30:13;43.65;;;33.45;;
41323;SDS011;27073;51.128;4.220;2022-12-17T11:33:08;46.22;;;36.47;;
41323;SDS011;27073;51.128;4.220;2022-12-17T11:38:51;46.75;;;34.95;;
41323;SDS011;27073;51.128;4.220;2022-12-17T11:42:01;45.42;;;34.78;;
41323;SDS011;27073;51.128;4.220;2022-12-17T11:47:48;47.47;;;35.55;;
41323;SDS011;27073;51.128;4.220;2022-12-17T11:54:28;46.25;;;35.83;;
41323;SDS011;27073;51.128;4.220;2022-12-17T12:00:43;49.97;;;36.33;;
41323;SDS011;27073;51.128;4.220;2022-12-17T12:06:17;53.72;;;36.28;;
41323;SDS011;27073;51.128;4.220;2022-12-17T12:09:21;49.35;;;36.35;;
41323;SDS011;27073;51.128;4.220;2022-12-17T12:15:20;50.22;;;35.92;;
41323;SDS011;27073;51.128;4.220;2022-12-17T12:19:11;47.80;;;36.95;;
41323;SDS011;27073;51.128;4.220;2022-12-17T12:21:54;51.10;;;36.97;;
41323;SDS011;27073;51.128;4.220;2022-12-17T12:24:55;45.03;;;34.00;;
41323;SDS011;27073;51.128;4.220;2022-12-17T12:28:09;52.47;;;33.85;;
41323;SDS011;27073;51.128;4.220;2022-12-17T12:31:12;44.75;;;34.83;;
41323;SDS011;27073;51.128;4.220;2022-12-17T12:34:20;46.92;;;35.13;;
41323;SDS011;27073;51.128;4.220;2022-12-17T12:37:12;45.33;;;34.47;;
41323;SDS011;27073;51.128;4.220;2022-12-17T12:42:55;45.47;;;35.15;;
41323;SDS011;27073;51.128;4.220;2022-12-17T12:45:54;45.30;;;34.40;;
41323;SDS011;27073;51.128;4.220;2022-12-17T12:48:47;44.45;;;34.17;;
41323;SDS011;27073;51.128;4.220;2022-12-17T12:52:09;44.15;;;33.63;;
41323;SDS011;27073;51.128;4.220;2022-12-17T12:55:01;42.85;;;33.35;;
41323;SDS011;27073;51.128;4.220;2022-12-17T12:57:58;47.47;;;35.15;;
41323;SDS011;27073;51.128;4.220;2022-12-17T13:03:32;44.33;;;33.42;;
41323;SDS011;27073;51.128;4.220;2022-12-17T13:09:19;49.38;;;36.08;;
41323;SDS011;27073;51.128;4.220;2022-12-17T13:19:42;48.25;;;36.65;;
41323;SDS011;27073;51.128;4.220;2022-12-17T13:22:26;52.67;;;36.45;;
41323;SDS011;27073;51.128;4.220;2022-12-17T13:24:55;49.47;;;36.63;;
41323;SDS011;27073;51.128;4.220;2022-12-17T13:32:49;49.42;;;36.60;;
41323;SDS011;27073;51.128;4.220;2022-12-17T13:35:51;48.70;;;35.10;;
41323;SDS011;27073;51.128;4.220;2022-12-17T13:41:12;46.95;;;35.92;;
41323;SDS011;27073;51.128;4.220;2022-12-17T13:43:47;48.50;;;35.60;;
41323;SDS011;27073;51.128;4.220;2022-12-17T13:46:22;49.08;;;35.92;;
41323;SDS011;27073;51.128;4.220;2022-12-17T13:49:01;47.05;;;35.08;;
41323;SDS011;27073;51.128;4.220;2022-12-17T13:51:31;48.50;;;36.10;;
41323;SDS011;27073;51.128;4.220;2022-12-17T13:53:59;52.10;;;37.05;;
41323;SDS011;27073;51.128;4.220;2022-12-17T13:58:53;53.33;;;36.17;;
41323;SDS011;27073;51.128;4.220;2022-12-17T14:01:20;49.45;;;36.42;;
41323;SDS011;27073;51.128;4.220;2022-12-17T14:03:50;50.03;;;35.22;;
41323;SDS011;27073;51.128;4.220;2022-12-17T14:06:18;49.42;;;36.92;;
41323;SDS011;27073;51.128;4.220;2022-12-17T14:08:46;52.97;;;36.83;;
41323;SDS011;27073;51.128;4.220;2022-12-17T14:11:14;48.95;;;35.58;;
41323;SDS011;27073;51.128;4.220;2022-12-17T14:13:59;54.08;;;35.67;;
41323;SDS011;27073;51.128;4.220;2022-12-17T14:16:25;50.85;;;36.95;;
41323;SDS011;27073;51.128;4.220;2022-12-17T14:18:52;53.60;;;37.28;;
41323;SDS011;27073;51.128;4.220;2022-12-17T14:21:20;50.17;;;37.55;;
41323;SDS011;27073;51.128;4.220;2022-12-17T14:23:47;54.00;;;37.10;;
41323;SDS011;27073;51.128;4.220;2022-12-17T14:26:15;52.42;;;38.47;;
41323;SDS011;27073;51.128;4.220;2022-12-17T14:28:45;55.47;;;38.13;;
41323;SDS011;27073;51.128;4.220;2022-12-17T14:33:38;57.67;;;40.30;;
41323;SDS011;27073;51.128;4.220;2022-12-17T14:38:49;56.10;;;36.47;;
41323;SDS011;27073;51.128;4.220;2022-12-17T14:41:24;54.28;;;37.40;;
41323;SDS011;27073;51.128;4.220;2022-12-17T14:47:16;49.50;;;35.70;;
41323;SDS011;27073;51.128;4.220;2022-12-17T14:50:34;53.33;;;36.78;;
41323;SDS011;27073;51.128;4.220;2022-12-17T15:00:36;58.25;;;38.95;;
41323;SDS011;27073;51.128;4.220;2022-12-17T15:03:03;64.25;;;40.60;;
41323;SDS011;27073;51.128;4.220;2022-12-17T15:05:29;60.03;;;40.47;;
41323;SDS011;27073;51.128;4.220;2022-12-17T15:07:55;64.95;;;40.10;;
41323;SDS011;27073;51.128;4.220;2022-12-17T15:10:21;60.03;;;39.42;;
41323;SDS011;27073;51.128;4.220;2022-12-17T15:12:46;60.83;;;41.20;;
41323;SDS011;27073;51.128;4.220;2022-12-17T15:15:15;58.67;;;40.35;;
41323;SDS011;27073;51.128;4.220;2022-12-17T15:17:41;62.28;;;40.97;;
41323;SDS011;27073;51.128;4.220;2022-12-17T15:20:17;61.40;;;40.90;;
41323;SDS011;27073;51.128;4.220;2022-12-17T15:22:45;62.60;;;41.72;;
41323;SDS011;27073;51.128;4.220;2022-12-17T15:25:15;58.17;;;40.45;;
41323;SDS011;27073;51.128;4.220;2022-12-17T15:27:43;57.72;;;39.08;;
41323;SDS011;27073;51.128;4.220;2022-12-17T15:30:14;60.80;;;39.35;;
41323;SDS011;27073;51.128;4.220;2022-12-17T15:32:42;67.25;;;41.58;;
41323;SDS011;27073;51.128;4.220;2022-12-17T15:35:09;64.50;;;41.47;;
41323;SDS011;27073;51.128;4.220;2022-12-17T15:37:36;66.22;;;41.40;;
41323;SDS011;27073;51.128;4.220;2022-12-17T15:40:02;66.05;;;41.00;;
41323;SDS011;27073;51.128;4.220;2022-12-17T15:42:29;61.83;;;40.08;;
41323;SDS011;27073;51.128;4.220;2022-12-17T15:45:13;62.72;;;40.10;;
41323;SDS011;27073;51.128;4.220;2022-12-17T15:47:39;67.25;;;39.47;;
41323;SDS011;27073;51.128;4.220;2022-12-17T15:50:05;64.78;;;40.88;;
41323;SDS011;27073;51.128;4.220;2022-12-17T15:52:31;60.00;;;39.70;;
41323;SDS011;27073;51.128;4.220;2022-12-17T15:54:57;62.08;;;39.95;;
41323;SDS011;27073;51.128;4.220;2022-12-17T15:57:22;58.78;;;38.15;;
41323;SDS011;27073;51.128;4.220;2022-12-17T15:59:49;61.20;;;39.92;;
41323;SDS011;27073;51.128;4.220;2022-12-17T16:02:15;61.30;;;39.22;;
41323;SDS011;27073;51.128;4.220;2022-12-17T16:04:41;59.03;;;40.10;;
41323;SDS011;27073;51.128;4.220;2022-12-17T16:07:06;64.07;;;41.00;;
41323;SDS011;27073;51.128;4.220;2022-12-17T16:09:32;67.55;;;40.42;;
41323;SDS011;27073;51.128;4.220;2022-12-17T16:11:58;65.97;;;42.88;;
41323;SDS011;27073;51.128;4.220;2022-12-17T16:14:23;69.25;;;43.67;;
41323;SDS011;27073;51.128;4.220;2022-12-17T16:16:49;74.20;;;42.95;;
41323;SDS011;27073;51.128;4.220;2022-12-17T16:19:15;68.78;;;42.55;;
41323;SDS011;27073;51.128;4.220;2022-12-17T16:21:42;70.50;;;43.13;;
41323;SDS011;27073;51.128;4.220;2022-12-17T16:24:07;65.25;;;41.95;;
41323;SDS011;27073;51.128;4.220;2022-12-17T16:26:35;66.70;;;39.85;;
41323;SDS011;27073;51.128;4.220;2022-12-17T16:29:01;71.72;;;43.97;;
41323;SDS011;27073;51.128;4.220;2022-12-17T16:31:27;73.07;;;43.28;;
41323;SDS011;27073;51.128;4.220;2022-12-17T16:33:53;71.00;;;42.30;;
41323;SDS011;27073;51.128;4.220;2022-12-17T16:36:19;74.57;;;43.85;;
41323;SDS011;27073;51.128;4.220;2022-12-17T16:38:49;71.10;;;42.15;;
41323;SDS011;27073;51.128;4.220;2022-12-17T16:41:17;72.57;;;44.17;;
41323;SDS011;27073;51.128;4.220;2022-12-17T16:43:44;73.03;;;42.53;;
41323;SDS011;27073;51.128;4.220;2022-12-17T16:46:29;69.60;;;41.42;;
41323;SDS011;27073;51.128;4.220;2022-12-17T16:48:59;75.90;;;43.70;;
41323;SDS011;27073;51.128;4.220;2022-12-17T16:51:33;79.35;;;46.58;;
41323;SDS011;27073;51.128;4.220;2022-12-17T16:54:00;77.72;;;43.45;;
41323;SDS011;27073;51.128;4.220;2022-12-17T16:56:35;76.53;;;42.63;;
41323;SDS011;27073;51.128;4.220;2022-12-17T16:59:02;73.57;;;43.67;;
41323;SDS011;27073;51.128;4.220;2022-12-17T17:01:29;70.30;;;42.42;;
41323;SDS011;27073;51.128;4.220;2022-12-17T17:03:56;70.80;;;41.22;;
41323;SDS011;27073;51.128;4.220;2022-12-17T17:06:22;74.50;;;42.40;;
41323;SDS011;27073;51.128;4.220;2022-12-17T17:08:49;72.68;;;41.67;;
41323;SDS011;27073;51.128;4.220;2022-12-17T17:11:18;78.15;;;44.80;;
41323;SDS011;27073;51.128;4.220;2022-12-17T17:13:48;72.57;;;41.35;;
41323;SDS011;27073;51.128;4.220;2022-12-17T17:16:17;72.78;;;43.35;;
41323;SDS011;27073;51.128;4.220;2022-12-17T17:18:43;63.60;;;39.78;;
41323;SDS011;27073;51.128;4.220;2022-12-17T17:23:44;67.05;;;39.65;;
41323;SDS011;27073;51.128;4.220;2022-12-17T17:26:11;67.97;;;38.53;;